Terminal Aerodrome Forecast
Issued by NWS Twin Cities, MN

Home | Current Version | Previous Version | Text Only | Print | Product List | Glossary On
Versions: 1 2 3 4 5 6 7 8 9 10 11 12 13 14 15 16 17 18 19 20 21 22 23 24
000
FTUS43 KMPX 012100 AAA
TAFEAU
TAF AMD
KEAU 012146Z 0122/0218 15005KT P6SM SCT009 OVC020
     FM020100 15004KT P6SM OVC009
     FM020300 17004KT 3SM BR OVC005
     FM020600 VRB02KT 1SM BR VV003
     FM020800 00000KT 1/4SM FG VV001
     FM021500 VRB02KT 4SM BR OVC007=

USA.gov is the U.S. government's official web portal to all federal, state and local government web resources and services.